sensor_id;sensor_type;location;lat;lon;timestamp;temperature;humidity
11772;DHT22;12556;55.748;13.194;2023-09-19T00:02:21;18.30;99.90
11772;DHT22;12556;55.748;13.194;2023-09-19T00:04:49;18.30;99.90
11772;DHT22;12556;55.748;13.194;2023-09-19T00:07:17;18.30;99.90
11772;DHT22;12556;55.748;13.194;2023-09-19T00:09:44;18.30;99.90
11772;DHT22;12556;55.748;13.194;2023-09-19T00:12:12;18.20;99.90
11772;DHT22;12556;55.748;13.194;2023-09-19T00:14:39;18.20;99.90
11772;DHT22;12556;55.748;13.194;2023-09-19T00:17:07;18.20;99.90
11772;DHT22;12556;55.748;13.194;2023-09-19T00:19:35;18.20;99.90
11772;DHT22;12556;55.748;13.194;2023-09-19T00:22:03;18.20;99.90
11772;DHT22;12556;55.748;13.194;2023-09-19T00:24:30;18.20;99.90
11772;DHT22;12556;55.748;13.194;2023-09-19T00:26:57;18.20;99.90
11772;DHT22;12556;55.748;13.194;2023-09-19T00:29:25;18.20;99.90
11772;DHT22;12556;55.748;13.194;2023-09-19T00:31:54;18.20;99.90
11772;DHT22;12556;55.748;13.194;2023-09-19T00:34:23;18.20;99.90
11772;DHT22;12556;55.748;13.194;2023-09-19T00:36:51;18.10;99.90
11772;DHT22;12556;55.748;13.194;2023-09-19T00:39:19;18.10;99.90
11772;DHT22;12556;55.748;13.194;2023-09-19T00:41:47;18.10;99.90
11772;DHT22;12556;55.748;13.194;2023-09-19T00:44:16;18.10;99.90
11772;DHT22;12556;55.748;13.194;2023-09-19T00:46:43;18.20;99.90
11772;DHT22;12556;55.748;13.194;2023-09-19T00:49:14;18.10;99.90
11772;DHT22;12556;55.748;13.194;2023-09-19T00:51:43;18.20;99.90
11772;DHT22;12556;55.748;13.194;2023-09-19T00:54:13;18.10;99.90
11772;DHT22;12556;55.748;13.194;2023-09-19T00:56:44;18.10;99.90
11772;DHT22;12556;55.748;13.194;2023-09-19T00:59:12;18.10;99.90
11772;DHT22;12556;55.748;13.194;2023-09-19T01:01:39;18.10;99.90
11772;DHT22;12556;55.748;13.194;2023-09-19T01:04:06;18.10;99.90
11772;DHT22;12556;55.748;13.194;2023-09-19T01:06:34;18.10;99.90
11772;DHT22;12556;55.748;13.194;2023-09-19T01:09:03;18.00;99.90
11772;DHT22;12556;55.748;13.194;2023-09-19T01:11:35;18.10;99.90
11772;DHT22;12556;55.748;13.194;2023-09-19T01:14:15;18.00;99.90
11772;DHT22;12556;55.748;13.194;2023-09-19T01:16:56;18.00;99.90
11772;DHT22;12556;55.748;13.194;2023-09-19T01:19:51;18.00;99.90
11772;DHT22;12556;55.748;13.194;2023-09-19T01:22:28;18.00;99.90
11772;DHT22;12556;55.748;13.194;2023-09-19T01:25:29;18.00;99.90
11772;DHT22;12556;55.748;13.194;2023-09-19T01:28:20;18.00;99.90
11772;DHT22;12556;55.748;13.194;2023-09-19T01:30:52;18.00;99.90
11772;DHT22;12556;55.748;13.194;2023-09-19T01:33:23;18.00;99.90
11772;DHT22;12556;55.748;13.194;2023-09-19T01:35:51;17.90;99.90
11772;DHT22;12556;55.748;13.194;2023-09-19T01:38:23;18.00;99.90
11772;DHT22;12556;55.748;13.194;2023-09-19T01:40:57;17.90;99.90
11772;DHT22;12556;55.748;13.194;2023-09-19T01:43:33;17.90;99.90
11772;DHT22;12556;55.748;13.194;2023-09-19T01:46:07;17.90;99.90
11772;DHT22;12556;55.748;13.194;2023-09-19T01:48:41;17.90;99.90
11772;DHT22;12556;55.748;13.194;2023-09-19T01:51:15;17.90;99.90
11772;DHT22;12556;55.748;13.194;2023-09-19T01:53:51;17.90;99.90
11772;DHT22;12556;55.748;13.194;2023-09-19T01:56:25;17.90;99.90
11772;DHT22;12556;55.748;13.194;2023-09-19T01:59:03;17.90;99.90
11772;DHT22;12556;55.748;13.194;2023-09-19T02:01:32;17.90;99.90
11772;DHT22;12556;55.748;13.194;2023-09-19T02:04:00;17.90;99.90
11772;DHT22;12556;55.748;13.194;2023-09-19T02:06:28;17.90;99.90
11772;DHT22;12556;55.748;13.194;2023-09-19T02:08:55;17.90;99.90
11772;DHT22;12556;55.748;13.194;2023-09-19T02:11:22;17.90;99.90
11772;DHT22;12556;55.748;13.194;2023-09-19T02:13:50;17.90;99.90
11772;DHT22;12556;55.748;13.194;2023-09-19T02:16:20;17.90;99.90
11772;DHT22;12556;55.748;13.194;2023-09-19T02:18:49;17.90;99.90
11772;DHT22;12556;55.748;13.194;2023-09-19T02:21:16;17.90;99.90
11772;DHT22;12556;55.748;13.194;2023-09-19T02:23:43;17.90;99.90
11772;DHT22;12556;55.748;13.194;2023-09-19T02:26:12;17.90;99.90
11772;DHT22;12556;55.748;13.194;2023-09-19T02:28:39;17.90;99.90
11772;DHT22;12556;55.748;13.194;2023-09-19T02:31:06;17.90;99.90
11772;DHT22;12556;55.748;13.194;2023-09-19T02:33:34;17.90;99.90
11772;DHT22;12556;55.748;13.194;2023-09-19T02:36:04;17.90;99.90
11772;DHT22;12556;55.748;13.194;2023-09-19T02:38:31;17.80;99.90
11772;DHT22;12556;55.748;13.194;2023-09-19T02:40:58;17.90;99.90
11772;DHT22;12556;55.748;13.194;2023-09-19T02:43:25;17.90;99.90
11772;DHT22;12556;55.748;13.194;2023-09-19T02:45:52;17.80;99.90
11772;DHT22;12556;55.748;13.194;2023-09-19T02:48:20;17.80;99.90
11772;DHT22;12556;55.748;13.194;2023-09-19T02:50:49;17.80;99.90
11772;DHT22;12556;55.748;13.194;2023-09-19T02:53:18;17.70;99.90
11772;DHT22;12556;55.748;13.194;2023-09-19T02:55:46;17.80;99.90
11772;DHT22;12556;55.748;13.194;2023-09-19T02:58:14;17.70;99.90
11772;DHT22;12556;55.748;13.194;2023-09-19T03:00:41;17.70;99.90
11772;DHT22;12556;55.748;13.194;2023-09-19T03:03:13;17.70;99.90
11772;DHT22;12556;55.748;13.194;2023-09-19T03:05:41;17.60;99.90
11772;DHT22;12556;55.748;13.194;2023-09-19T03:08:12;17.60;99.90
11772;DHT22;12556;55.748;13.194;2023-09-19T03:10:42;17.60;99.90
11772;DHT22;12556;55.748;13.194;2023-09-19T03:13:09;17.60;99.90
11772;DHT22;12556;55.748;13.194;2023-09-19T03:15:36;17.60;99.90
11772;DHT22;12556;55.748;13.194;2023-09-19T03:18:04;17.50;99.90
11772;DHT22;12556;55.748;13.194;2023-09-19T03:20:31;17.50;99.90
11772;DHT22;12556;55.748;13.194;2023-09-19T03:22:58;17.50;99.90
11772;DHT22;12556;55.748;13.194;2023-09-19T03:25:25;17.50;99.90
11772;DHT22;12556;55.748;13.194;2023-09-19T03:27:56;17.50;99.90
11772;DHT22;12556;55.748;13.194;2023-09-19T03:30:24;17.50;99.90
11772;DHT22;12556;55.748;13.194;2023-09-19T03:32:52;17.40;99.90
11772;DHT22;12556;55.748;13.194;2023-09-19T03:35:18;17.40;99.90
11772;DHT22;12556;55.748;13.194;2023-09-19T03:37:45;17.40;99.90
11772;DHT22;12556;55.748;13.194;2023-09-19T03:40:12;17.40;99.90
11772;DHT22;12556;55.748;13.194;2023-09-19T03:42:40;17.30;99.90
11772;DHT22;12556;55.748;13.194;2023-09-19T03:45:09;17.30;99.90
11772;DHT22;12556;55.748;13.194;2023-09-19T03:47:38;17.30;99.90
11772;DHT22;12556;55.748;13.194;2023-09-19T03:50:06;17.50;99.90
11772;DHT22;12556;55.748;13.194;2023-09-19T03:52:33;17.30;99.90
11772;DHT22;12556;55.748;13.194;2023-09-19T03:55:00;17.30;99.90
11772;DHT22;12556;55.748;13.194;2023-09-19T03:57:30;17.30;99.90
11772;DHT22;12556;55.748;13.194;2023-09-19T03:59:57;17.30;99.90
11772;DHT22;12556;55.748;13.194;2023-09-19T04:02:25;17.30;99.90
11772;DHT22;12556;55.748;13.194;2023-09-19T04:04:58;17.30;99.90
11772;DHT22;12556;55.748;13.194;2023-09-19T04:07:25;17.30;99.90
11772;DHT22;12556;55.748;13.194;2023-09-19T04:09:54;17.30;99.90
11772;DHT22;12556;55.748;13.194;2023-09-19T04:12:21;17.30;99.90
11772;DHT22;12556;55.748;13.194;2023-09-19T04:14:49;17.30;99.90
11772;DHT22;12556;55.748;13.194;2023-09-19T04:17:17;17.20;99.90
11772;DHT22;12556;55.748;13.194;2023-09-19T04:19:45;17.20;99.90
11772;DHT22;12556;55.748;13.194;2023-09-19T04:22:12;17.20;99.90
11772;DHT22;12556;55.748;13.194;2023-09-19T04:24:39;17.20;99.90
11772;DHT22;12556;55.748;13.194;2023-09-19T04:27:06;17.20;99.90
11772;DHT22;12556;55.748;13.194;2023-09-19T04:29:33;17.20;99.90
11772;DHT22;12556;55.748;13.194;2023-09-19T04:32:00;17.20;99.90
11772;DHT22;12556;55.748;13.194;2023-09-19T04:34:30;17.20;99.90
11772;DHT22;12556;55.748;13.194;2023-09-19T04:36:58;17.20;99.90
11772;DHT22;12556;55.748;13.194;2023-09-19T04:39:26;17.20;99.90
11772;DHT22;12556;55.748;13.194;2023-09-19T04:41:53;17.10;99.90
11772;DHT22;12556;55.748;13.194;2023-09-19T04:44:20;17.10;99.90
11772;DHT22;12556;55.748;13.194;2023-09-19T04:46:47;17.10;99.90
11772;DHT22;12556;55.748;13.194;2023-09-19T04:49:14;17.10;99.90
11772;DHT22;12556;55.748;13.194;2023-09-19T04:51:41;17.10;99.90
11772;DHT22;12556;55.748;13.194;2023-09-19T04:54:09;17.20;99.90
11772;DHT22;12556;55.748;13.194;2023-09-19T04:56:36;17.10;99.90
11772;DHT22;12556;55.748;13.194;2023-09-19T04:59:05;17.10;99.90
11772;DHT22;12556;55.748;13.194;2023-09-19T05:01:32;17.10;99.90
11772;DHT22;12556;55.748;13.194;2023-09-19T05:03:59;17.10;99.90
11772;DHT22;12556;55.748;13.194;2023-09-19T05:06:26;17.10;99.90
11772;DHT22;12556;55.748;13.194;2023-09-19T05:08:53;17.10;99.90
11772;DHT22;12556;55.748;13.194;2023-09-19T05:11:21;17.10;99.90
11772;DHT22;12556;55.748;13.194;2023-09-19T05:13:50;17.10;99.90
11772;DHT22;12556;55.748;13.194;2023-09-19T05:16:18;17.10;99.90
11772;DHT22;12556;55.748;13.194;2023-09-19T05:18:45;17.00;99.90
11772;DHT22;12556;55.748;13.194;2023-09-19T05:21:12;17.10;99.90
11772;DHT22;12556;55.748;13.194;2023-09-19T05:23:39;17.00;99.90
11772;DHT22;12556;55.748;13.194;2023-09-19T05:26:06;17.00;99.90
11772;DHT22;12556;55.748;13.194;2023-09-19T05:28:34;17.00;99.90
11772;DHT22;12556;55.748;13.194;2023-09-19T05:31:03;17.00;99.90
11772;DHT22;12556;55.748;13.194;2023-09-19T05:33:30;16.90;99.90
11772;DHT22;12556;55.748;13.194;2023-09-19T05:35:58;16.90;99.90
11772;DHT22;12556;55.748;13.194;2023-09-19T05:38:25;16.90;99.90
11772;DHT22;12556;55.748;13.194;2023-09-19T05:40:53;16.80;99.90
11772;DHT22;12556;55.748;13.194;2023-09-19T05:43:19;16.80;99.90
11772;DHT22;12556;55.748;13.194;2023-09-19T05:45:48;16.80;99.90
11772;DHT22;12556;55.748;13.194;2023-09-19T05:48:17;16.80;99.90
11772;DHT22;12556;55.748;13.194;2023-09-19T05:50:45;16.70;99.90
11772;DHT22;12556;55.748;13.194;2023-09-19T05:53:14;16.70;99.90
11772;DHT22;12556;55.748;13.194;2023-09-19T05:55:41;16.70;99.90
11772;DHT22;12556;55.748;13.194;2023-09-19T05:58:08;16.70;99.90
11772;DHT22;12556;55.748;13.194;2023-09-19T06:00:39;16.70;99.90
11772;DHT22;12556;55.748;13.194;2023-09-19T06:03:09;16.70;99.90
11772;DHT22;12556;55.748;13.194;2023-09-19T06:05:37;16.70;99.90
11772;DHT22;12556;55.748;13.194;2023-09-19T06:08:07;16.70;99.90
11772;DHT22;12556;55.748;13.194;2023-09-19T06:10:35;16.80;99.90
11772;DHT22;12556;55.748;13.194;2023-09-19T06:13:02;16.80;99.90
11772;DHT22;12556;55.748;13.194;2023-09-19T06:15:30;16.80;99.90
11772;DHT22;12556;55.748;13.194;2023-09-19T06:17:59;16.90;99.90
11772;DHT22;12556;55.748;13.194;2023-09-19T06:20:29;17.00;99.90
11772;DHT22;12556;55.748;13.194;2023-09-19T06:22:56;17.20;99.90
11772;DHT22;12556;55.748;13.194;2023-09-19T06:25:23;17.00;99.90
11772;DHT22;12556;55.748;13.194;2023-09-19T06:27:51;17.00;99.90
11772;DHT22;12556;55.748;13.194;2023-09-19T06:30:19;17.00;99.90
11772;DHT22;12556;55.748;13.194;2023-09-19T06:32:47;17.20;99.90
11772;DHT22;12556;55.748;13.194;2023-09-19T06:35:15;17.10;99.90
11772;DHT22;12556;55.748;13.194;2023-09-19T06:37:44;17.30;99.90
11772;DHT22;12556;55.748;13.194;2023-09-19T06:40:12;17.00;99.90
11772;DHT22;12556;55.748;13.194;2023-09-19T06:42:40;17.10;99.90
11772;DHT22;12556;55.748;13.194;2023-09-19T06:45:08;17.00;99.90
11772;DHT22;12556;55.748;13.194;2023-09-19T06:47:37;16.90;99.90
11772;DHT22;12556;55.748;13.194;2023-09-19T06:50:04;17.00;99.90
11772;DHT22;12556;55.748;13.194;2023-09-19T06:52:34;16.90;99.90
11772;DHT22;12556;55.748;13.194;2023-09-19T06:55:03;16.80;99.90
11772;DHT22;12556;55.748;13.194;2023-09-19T06:57:32;16.80;99.90
11772;DHT22;12556;55.748;13.194;2023-09-19T06:59:59;16.80;99.90
11772;DHT22;12556;55.748;13.194;2023-09-19T07:02:27;16.80;99.90
11772;DHT22;12556;55.748;13.194;2023-09-19T07:04:53;16.80;99.90
11772;DHT22;12556;55.748;13.194;2023-09-19T07:07:20;16.80;99.90
11772;DHT22;12556;55.748;13.194;2023-09-19T07:09:47;16.80;99.90
11772;DHT22;12556;55.748;13.194;2023-09-19T07:12:16;16.80;99.90
11772;DHT22;12556;55.748;13.194;2023-09-19T07:14:43;16.80;99.90
11772;DHT22;12556;55.748;13.194;2023-09-19T07:17:10;16.80;99.90
11772;DHT22;12556;55.748;13.194;2023-09-19T07:19:37;16.90;99.90
11772;DHT22;12556;55.748;13.194;2023-09-19T07:22:04;16.90;99.90
11772;DHT22;12556;55.748;13.194;2023-09-19T07:24:33;17.00;99.90
11772;DHT22;12556;55.748;13.194;2023-09-19T07:27:02;17.00;99.90
11772;DHT22;12556;55.748;13.194;2023-09-19T07:29:32;17.10;99.90
11772;DHT22;12556;55.748;13.194;2023-09-19T07:31:59;17.20;99.90
11772;DHT22;12556;55.748;13.194;2023-09-19T07:34:25;17.20;99.90
11772;DHT22;12556;55.748;13.194;2023-09-19T07:36:53;17.30;99.90
11772;DHT22;12556;55.748;13.194;2023-09-19T07:39:20;17.40;99.90
11772;DHT22;12556;55.748;13.194;2023-09-19T07:41:46;17.40;99.90
11772;DHT22;12556;55.748;13.194;2023-09-19T07:44:14;17.40;99.90
11772;DHT22;12556;55.748;13.194;2023-09-19T07:46:44;17.40;99.90
11772;DHT22;12556;55.748;13.194;2023-09-19T07:49:11;17.30;99.90
11772;DHT22;12556;55.748;13.194;2023-09-19T07:51:37;17.30;99.90
11772;DHT22;12556;55.748;13.194;2023-09-19T07:54:05;17.20;99.90
11772;DHT22;12556;55.748;13.194;2023-09-19T07:56:33;17.20;99.90
11772;DHT22;12556;55.748;13.194;2023-09-19T07:59:00;17.00;99.90
11772;DHT22;12556;55.748;13.194;2023-09-19T08:01:28;16.90;99.90
11772;DHT22;12556;55.748;13.194;2023-09-19T08:03:56;16.90;99.90
11772;DHT22;12556;55.748;13.194;2023-09-19T08:06:23;17.00;99.90
11772;DHT22;12556;55.748;13.194;2023-09-19T08:08:51;17.10;99.90
11772;DHT22;12556;55.748;13.194;2023-09-19T08:11:20;17.20;99.90
11772;DHT22;12556;55.748;13.194;2023-09-19T08:13:50;17.40;99.90
11772;DHT22;12556;55.748;13.194;2023-09-19T08:16:17;17.40;99.90
11772;DHT22;12556;55.748;13.194;2023-09-19T08:18:47;17.80;99.90
11772;DHT22;12556;55.748;13.194;2023-09-19T08:21:15;17.70;99.90
11772;DHT22;12556;55.748;13.194;2023-09-19T08:23:42;17.70;99.90
11772;DHT22;12556;55.748;13.194;2023-09-19T08:26:10;17.80;99.90
11772;DHT22;12556;55.748;13.194;2023-09-19T08:28:37;17.90;99.90
11772;DHT22;12556;55.748;13.194;2023-09-19T08:31:07;18.00;99.90
11772;DHT22;12556;55.748;13.194;2023-09-19T08:33:35;18.00;99.90
11772;DHT22;12556;55.748;13.194;2023-09-19T08:36:03;18.10;99.90
11772;DHT22;12556;55.748;13.194;2023-09-19T08:38:33;18.10;99.90
11772;DHT22;12556;55.748;13.194;2023-09-19T08:41:01;18.10;99.90
11772;DHT22;12556;55.748;13.194;2023-09-19T08:43:31;18.20;99.90
11772;DHT22;12556;55.748;13.194;2023-09-19T08:46:06;18.20;99.90
11772;DHT22;12556;55.748;13.194;2023-09-19T08:48:39;18.20;99.90
11772;DHT22;12556;55.748;13.194;2023-09-19T08:51:10;18.20;99.90
11772;DHT22;12556;55.748;13.194;2023-09-19T08:53:47;18.20;99.90
11772;DHT22;12556;55.748;13.194;2023-09-19T08:56:18;18.20;99.90
11772;DHT22;12556;55.748;13.194;2023-09-19T08:58:49;18.40;99.90
11772;DHT22;12556;55.748;13.194;2023-09-19T09:01:19;18.10;99.90
11772;DHT22;12556;55.748;13.194;2023-09-19T09:03:51;18.00;99.90
11772;DHT22;12556;55.748;13.194;2023-09-19T09:06:19;17.90;99.90
11772;DHT22;12556;55.748;13.194;2023-09-19T09:08:48;17.70;99.90
11772;DHT22;12556;55.748;13.194;2023-09-19T09:11:16;17.40;99.90
11772;DHT22;12556;55.748;13.194;2023-09-19T09:13:43;16.90;99.90
11772;DHT22;12556;55.748;13.194;2023-09-19T09:16:11;16.70;99.90
11772;DHT22;12556;55.748;13.194;2023-09-19T09:18:39;16.50;99.90
11772;DHT22;12556;55.748;13.194;2023-09-19T09:21:07;16.40;99.90
11772;DHT22;12556;55.748;13.194;2023-09-19T09:23:34;16.40;99.90
11772;DHT22;12556;55.748;13.194;2023-09-19T09:26:02;16.40;99.90
11772;DHT22;12556;55.748;13.194;2023-09-19T09:28:32;16.40;99.90
11772;DHT22;12556;55.748;13.194;2023-09-19T09:31:01;16.40;99.90
11772;DHT22;12556;55.748;13.194;2023-09-19T09:33:33;16.40;99.90
11772;DHT22;12556;55.748;13.194;2023-09-19T09:36:02;16.40;99.90
11772;DHT22;12556;55.748;13.194;2023-09-19T09:38:44;16.50;99.90
11772;DHT22;12556;55.748;13.194;2023-09-19T09:41:15;16.50;99.90
11772;DHT22;12556;55.748;13.194;2023-09-19T09:43:53;16.50;99.90
11772;DHT22;12556;55.748;13.194;2023-09-19T09:46:21;16.50;99.90
11772;DHT22;12556;55.748;13.194;2023-09-19T09:49:05;16.50;99.90
11772;DHT22;12556;55.748;13.194;2023-09-19T09:51:42;16.40;99.90
11772;DHT22;12556;55.748;13.194;2023-09-19T09:54:13;16.40;99.90
11772;DHT22;12556;55.748;13.194;2023-09-19T09:56:56;16.40;99.90
11772;DHT22;12556;55.748;13.194;2023-09-19T09:59:48;16.30;99.90
11772;DHT22;12556;55.748;13.194;2023-09-19T10:02:17;16.30;99.90
11772;DHT22;12556;55.748;13.194;2023-09-19T10:04:51;16.30;99.90
11772;DHT22;12556;55.748;13.194;2023-09-19T10:07:28;16.40;99.90
11772;DHT22;12556;55.748;13.194;2023-09-19T10:09:59;16.40;99.90
11772;DHT22;12556;55.748;13.194;2023-09-19T10:12:40;16.40;99.90
11772;DHT22;12556;55.748;13.194;2023-09-19T10:15:08;16.50;99.90
11772;DHT22;12556;55.748;13.194;2023-09-19T10:17:40;16.50;99.90
11772;DHT22;12556;55.748;13.194;2023-09-19T10:20:12;16.90;99.90
11772;DHT22;12556;55.748;13.194;2023-09-19T10:22:48;16.60;99.90
11772;DHT22;12556;55.748;13.194;2023-09-19T10:25:25;16.70;99.90
11772;DHT22;12556;55.748;13.194;2023-09-19T10:27:56;16.80;99.90
11772;DHT22;12556;55.748;13.194;2023-09-19T10:30:24;16.90;99.90
11772;DHT22;12556;55.748;13.194;2023-09-19T10:33:00;17.20;99.90
11772;DHT22;12556;55.748;13.194;2023-09-19T10:35:28;17.40;99.90
11772;DHT22;12556;55.748;13.194;2023-09-19T10:37:59;17.60;99.90
11772;DHT22;12556;55.748;13.194;2023-09-19T10:40:27;17.80;99.90
11772;DHT22;12556;55.748;13.194;2023-09-19T10:43:03;18.00;99.90
11772;DHT22;12556;55.748;13.194;2023-09-19T10:45:32;18.10;99.90
11772;DHT22;12556;55.748;13.194;2023-09-19T10:47:59;18.30;99.90
11772;DHT22;12556;55.748;13.194;2023-09-19T10:50:31;18.30;99.90
11772;DHT22;12556;55.748;13.194;2023-09-19T10:53:00;18.20;99.90
11772;DHT22;12556;55.748;13.194;2023-09-19T10:55:31;18.20;99.90
11772;DHT22;12556;55.748;13.194;2023-09-19T10:58:02;18.20;99.90
11772;DHT22;12556;55.748;13.194;2023-09-19T11:00:51;18.20;99.90
11772;DHT22;12556;55.748;13.194;2023-09-19T11:03:19;18.30;99.90
11772;DHT22;12556;55.748;13.194;2023-09-19T11:06:02;18.30;99.90
11772;DHT22;12556;55.748;13.194;2023-09-19T11:09:00;18.20;99.90
11772;DHT22;12556;55.748;13.194;2023-09-19T11:11:43;18.20;99.90
11772;DHT22;12556;55.748;13.194;2023-09-19T11:14:28;18.00;99.90
11772;DHT22;12556;55.748;13.194;2023-09-19T11:17:30;17.90;99.90
11772;DHT22;12556;55.748;13.194;2023-09-19T11:20:19;17.60;99.90
11772;DHT22;12556;55.748;13.194;2023-09-19T11:23:23;17.40;99.90
11772;DHT22;12556;55.748;13.194;2023-09-19T11:25:52;17.10;99.90
11772;DHT22;12556;55.748;13.194;2023-09-19T11:28:35;16.70;99.90
11772;DHT22;12556;55.748;13.194;2023-09-19T11:34:47;16.40;99.90
11772;DHT22;12556;55.748;13.194;2023-09-19T11:40:45;16.10;99.90
11772;DHT22;12556;55.748;13.194;2023-09-19T11:43:30;16.30;99.90
11772;DHT22;12556;55.748;13.194;2023-09-19T11:46:08;16.50;99.90
11772;DHT22;12556;55.748;13.194;2023-09-19T11:48:38;16.80;99.90
11772;DHT22;12556;55.748;13.194;2023-09-19T11:51:16;17.10;99.90
11772;DHT22;12556;55.748;13.194;2023-09-19T11:53:48;17.20;99.90
11772;DHT22;12556;55.748;13.194;2023-09-19T11:56:17;17.50;99.90
11772;DHT22;12556;55.748;13.194;2023-09-19T11:58:46;17.80;99.90
11772;DHT22;12556;55.748;13.194;2023-09-19T12:01:15;18.00;99.90
11772;DHT22;12556;55.748;13.194;2023-09-19T12:03:52;18.10;99.90
11772;DHT22;12556;55.748;13.194;2023-09-19T12:06:22;18.20;99.90
11772;DHT22;12556;55.748;13.194;2023-09-19T12:08:49;18.30;99.90
11772;DHT22;12556;55.748;13.194;2023-09-19T12:11:19;18.20;99.90
11772;DHT22;12556;55.748;13.194;2023-09-19T12:13:49;18.10;99.90
11772;DHT22;12556;55.748;13.194;2023-09-19T12:16:19;18.00;99.90
11772;DHT22;12556;55.748;13.194;2023-09-19T12:18:48;17.90;99.90
11772;DHT22;12556;55.748;13.194;2023-09-19T12:21:28;18.00;99.90
11772;DHT22;12556;55.748;13.194;2023-09-19T12:24:07;17.70;99.90
11772;DHT22;12556;55.748;13.194;2023-09-19T12:26:42;17.60;99.90
11772;DHT22;12556;55.748;13.194;2023-09-19T12:29:15;17.60;99.90
11772;DHT22;12556;55.748;13.194;2023-09-19T12:31:51;17.60;99.90
11772;DHT22;12556;55.748;13.194;2023-09-19T12:34:21;17.60;99.90
11772;DHT22;12556;55.748;13.194;2023-09-19T12:37:03;17.50;99.90
11772;DHT22;12556;55.748;13.194;2023-09-19T12:39:31;17.50;99.90
11772;DHT22;12556;55.748;13.194;2023-09-19T12:41:58;17.50;99.90
11772;DHT22;12556;55.748;13.194;2023-09-19T12:44:25;17.70;99.90
11772;DHT22;12556;55.748;13.194;2023-09-19T12:46:53;17.50;99.90
11772;DHT22;12556;55.748;13.194;2023-09-19T12:49:20;17.50;99.90
11772;DHT22;12556;55.748;13.194;2023-09-19T12:51:51;17.50;99.90
11772;DHT22;12556;55.748;13.194;2023-09-19T12:54:22;17.50;99.90
11772;DHT22;12556;55.748;13.194;2023-09-19T12:56:52;17.40;99.90
11772;DHT22;12556;55.748;13.194;2023-09-19T12:59:29;17.40;99.90
11772;DHT22;12556;55.748;13.194;2023-09-19T13:02:04;17.50;99.90
11772;DHT22;12556;55.748;13.194;2023-09-19T13:04:33;17.40;99.90
11772;DHT22;12556;55.748;13.194;2023-09-19T13:07:07;17.40;99.90
11772;DHT22;12556;55.748;13.194;2023-09-19T13:09:35;17.30;99.90
11772;DHT22;12556;55.748;13.194;2023-09-19T13:12:04;17.40;99.90
11772;DHT22;12556;55.748;13.194;2023-09-19T13:14:33;17.30;99.90
11772;DHT22;12556;55.748;13.194;2023-09-19T13:17:04;17.20;99.90
11772;DHT22;12556;55.748;13.194;2023-09-19T13:19:42;17.20;99.90
11772;DHT22;12556;55.748;13.194;2023-09-19T13:22:37;17.20;99.90
11772;DHT22;12556;55.748;13.194;2023-09-19T13:25:09;17.20;99.90
11772;DHT22;12556;55.748;13.194;2023-09-19T13:27:41;17.10;99.90
11772;DHT22;12556;55.748;13.194;2023-09-19T13:30:09;17.10;99.90
11772;DHT22;12556;55.748;13.194;2023-09-19T13:32:36;17.10;99.90
11772;DHT22;12556;55.748;13.194;2023-09-19T13:35:05;17.30;99.90
11772;DHT22;12556;55.748;13.194;2023-09-19T13:37:34;17.10;99.90
11772;DHT22;12556;55.748;13.194;2023-09-19T13:40:06;17.10;99.90
11772;DHT22;12556;55.748;13.194;2023-09-19T13:42:33;17.20;99.90
11772;DHT22;12556;55.748;13.194;2023-09-19T13:45:02;17.20;99.90
11772;DHT22;12556;55.748;13.194;2023-09-19T13:47:30;17.10;99.90
11772;DHT22;12556;55.748;13.194;2023-09-19T13:49:57;17.20;99.90
11772;DHT22;12556;55.748;13.194;2023-09-19T13:52:23;17.20;99.90
11772;DHT22;12556;55.748;13.194;2023-09-19T13:54:53;17.20;99.90
11772;DHT22;12556;55.748;13.194;2023-09-19T13:57:23;17.40;99.90
11772;DHT22;12556;55.748;13.194;2023-09-19T13:59:51;17.20;99.90
11772;DHT22;12556;55.748;13.194;2023-09-19T14:02:20;17.10;99.90
11772;DHT22;12556;55.748;13.194;2023-09-19T14:04:48;17.10;99.90
11772;DHT22;12556;55.748;13.194;2023-09-19T14:07:15;17.10;99.90
11772;DHT22;12556;55.748;13.194;2023-09-19T14:09:43;17.10;99.90
11772;DHT22;12556;55.748;13.194;2023-09-19T14:12:11;17.00;99.90
11772;DHT22;12556;55.748;13.194;2023-09-19T14:14:39;17.10;99.90
11772;DHT22;12556;55.748;13.194;2023-09-19T14:17:06;17.10;99.90
11772;DHT22;12556;55.748;13.194;2023-09-19T14:19:34;17.10;99.90
11772;DHT22;12556;55.748;13.194;2023-09-19T14:22:02;17.10;99.90
11772;DHT22;12556;55.748;13.194;2023-09-19T14:24:33;17.10;99.90
11772;DHT22;12556;55.748;13.194;2023-09-19T14:27:00;17.10;99.90
11772;DHT22;12556;55.748;13.194;2023-09-19T14:29:29;17.10;99.90
11772;DHT22;12556;55.748;13.194;2023-09-19T14:31:58;17.20;99.90
11772;DHT22;12556;55.748;13.194;2023-09-19T14:34:25;17.20;99.90
11772;DHT22;12556;55.748;13.194;2023-09-19T14:36:52;17.20;99.90
11772;DHT22;12556;55.748;13.194;2023-09-19T14:39:19;17.10;99.90
11772;DHT22;12556;55.748;13.194;2023-09-19T14:41:46;17.10;99.90
11772;DHT22;12556;55.748;13.194;2023-09-19T14:44:13;17.10;99.90
11772;DHT22;12556;55.748;13.194;2023-09-19T14:46:41;17.10;99.90
11772;DHT22;12556;55.748;13.194;2023-09-19T14:49:10;17.10;99.90
11772;DHT22;12556;55.748;13.194;2023-09-19T14:51:38;17.00;99.90
11772;DHT22;12556;55.748;13.194;2023-09-19T14:54:06;17.10;99.90
11772;DHT22;12556;55.748;13.194;2023-09-19T14:56:34;17.00;99.90
11772;DHT22;12556;55.748;13.194;2023-09-19T14:59:01;17.10;99.90
11772;DHT22;12556;55.748;13.194;2023-09-19T15:01:28;17.00;99.90
11772;DHT22;12556;55.748;13.194;2023-09-19T15:03:55;17.10;99.90
11772;DHT22;12556;55.748;13.194;2023-09-19T15:06:24;17.00;99.90
11772;DHT22;12556;55.748;13.194;2023-09-19T15:08:52;17.00;99.90
11772;DHT22;12556;55.748;13.194;2023-09-19T15:11:19;17.00;99.90
11772;DHT22;12556;55.748;13.194;2023-09-19T15:13:47;17.00;99.90
11772;DHT22;12556;55.748;13.194;2023-09-19T15:16:14;17.00;99.90
11772;DHT22;12556;55.748;13.194;2023-09-19T15:18:42;16.90;99.90
11772;DHT22;12556;55.748;13.194;2023-09-19T15:21:12;16.90;99.90
11772;DHT22;12556;55.748;13.194;2023-09-19T15:23:42;16.90;99.90
11772;DHT22;12556;55.748;13.194;2023-09-19T15:26:11;17.00;99.90
11772;DHT22;12556;55.748;13.194;2023-09-19T15:28:39;16.90;99.90
11772;DHT22;12556;55.748;13.194;2023-09-19T15:31:07;16.90;99.90
11772;DHT22;12556;55.748;13.194;2023-09-19T15:33:34;16.90;99.90
11772;DHT22;12556;55.748;13.194;2023-09-19T15:36:02;16.90;99.90
11772;DHT22;12556;55.748;13.194;2023-09-19T15:38:30;16.90;99.90
11772;DHT22;12556;55.748;13.194;2023-09-19T15:40:59;16.90;99.90